createdAt,value
2023-02-18T00:02:25.280Z,14.1
2023-02-18T00:08:03.245Z,14.1
2023-02-18T00:13:25.170Z,14.2
2023-02-18T00:19:01.814Z,14.3
2023-02-18T00:24:08.124Z,14.3
2023-02-18T00:29:45.388Z,14.3
2023-02-18T00:35:06.734Z,14.1
2023-02-18T00:40:43.953Z,14.1
2023-02-18T00:46:20.708Z,14.1
2023-02-18T00:51:58.413Z,14.3
2023-02-18T00:57:35.711Z,14.3
2023-02-18T01:03:12.687Z,14.3
2023-02-18T01:08:49.908Z,14.2
2023-02-18T01:14:28.288Z,14.1
2023-02-18T01:20:05.050Z,14
2023-02-18T01:25:42.244Z,14.1
2023-02-18T01:31:19.638Z,14.2
2023-02-18T01:36:57.340Z,14.2
2023-02-18T01:42:34.970Z,14.1
2023-02-18T01:48:11.894Z,14
2023-02-18T01:53:34.252Z,13.9
2023-02-18T01:59:12.364Z,13.9
2023-02-18T02:04:49.848Z,13.8
2023-02-18T02:10:26.651Z,13.9
2023-02-18T02:16:03.001Z,14
2023-02-18T02:21:40.391Z,14.1
2023-02-18T02:27:16.839Z,14.1
2023-02-18T02:32:54.845Z,14.2
2023-02-18T02:38:31.961Z,14.1
2023-02-18T02:44:09.577Z,14
2023-02-18T02:49:47.769Z,13.9
2023-02-18T02:55:25.248Z,13.8
2023-02-18T03:01:02.856Z,13.8
2023-02-18T03:06:40.348Z,13.8
2023-02-18T03:12:17.627Z,14
2023-02-18T03:17:55.438Z,14.1
2023-02-18T03:23:32.819Z,14.2
2023-02-18T03:29:11.262Z,14.1
2023-02-18T03:34:49.246Z,13.9
2023-02-18T03:40:25.692Z,13.9
2023-02-18T03:45:47.522Z,13.9
2023-02-18T03:51:08.725Z,14.1
2023-02-18T03:56:46.042Z,14.1
2023-02-18T04:02:23.031Z,14.1
2023-02-18T04:08:00.870Z,14
2023-02-18T04:13:37.899Z,13.9
2023-02-18T04:19:14.704Z,13.9
2023-02-18T04:24:52.468Z,13.9
2023-02-18T04:30:16.271Z,14.1
2023-02-18T04:35:56.279Z,14.1
2023-02-18T04:41:33.874Z,14.1
2023-02-18T04:47:11.223Z,13.9
2023-02-18T04:52:48.587Z,13.8
2023-02-18T04:58:24.885Z,13.9
2023-02-18T05:03:46.438Z,13.9
2023-02-18T05:09:08.478Z,14
2023-02-18T05:14:29.853Z,14.1
2023-02-18T05:20:09.857Z,14.1
2023-02-18T05:25:31.006Z,14.1
2023-02-18T05:31:08.083Z,14
2023-02-18T05:36:46.522Z,13.9
2023-02-18T05:42:24.161Z,13.8
2023-02-18T05:47:31.749Z,13.7
2023-02-18T05:53:09.426Z,13.8
2023-02-18T05:58:45.272Z,14
2023-02-18T06:04:07.378Z,14
2023-02-18T06:09:30.773Z,13.9
2023-02-18T06:15:08.201Z,13.8
2023-02-18T06:20:45.667Z,13.7
2023-02-18T06:26:23.855Z,13.6
2023-02-18T06:32:02.206Z,13.6
2023-02-18T06:37:39.653Z,13.8
2023-02-18T06:43:17.673Z,14
2023-02-18T06:48:55.236Z,14.1
2023-02-18T06:54:34.546Z,13.9
2023-02-18T06:59:41.463Z,13.8
2023-02-18T07:05:18.835Z,13.7
2023-02-18T07:10:56.834Z,13.8
2023-02-18T07:16:34.100Z,14
2023-02-18T07:22:11.039Z,14.1
2023-02-18T07:27:33.321Z,14.1
2023-02-18T07:33:10.560Z,14
2023-02-18T07:38:47.479Z,13.9
2023-02-18T07:44:24.525Z,13.8
2023-02-18T07:50:01.729Z,13.7
2023-02-18T07:55:40.731Z,13.8
2023-02-18T08:01:18.150Z,13.9
2023-02-18T08:06:55.356Z,13.9
2023-02-18T08:12:42.858Z,13.9
2023-02-18T08:18:20.005Z,13.8
2023-02-18T08:23:57.373Z,13.6
2023-02-18T08:29:46.861Z,13.7
2023-02-18T08:35:25.120Z,13.9
2023-02-18T08:40:55.973Z,13.8
2023-02-18T08:46:51.755Z,13.8
2023-02-18T08:53:40.153Z,13.8
2023-02-18T08:59:02.478Z,13.7
2023-02-18T09:04:43.011Z,13.8
2023-02-18T09:10:03.853Z,13.9
2023-02-18T09:15:40.448Z,13.9
2023-02-18T09:21:17.470Z,13.9
2023-02-18T09:26:55.004Z,13.9
2023-02-18T09:32:48.979Z,13.8
2023-02-18T09:38:29.645Z,13.9
2023-02-18T09:43:52.392Z,14
2023-02-18T09:49:32.584Z,14
2023-02-18T09:55:10.565Z,13.9
2023-02-18T10:00:49.553Z,13.8
2023-02-18T10:06:29.366Z,13.8
2023-02-18T10:12:07.603Z,13.9
2023-02-18T10:17:29.226Z,14.1
2023-02-18T10:23:11.317Z,14.1
2023-02-18T10:28:33.163Z,14
2023-02-18T10:34:11.276Z,13.9
2023-02-18T10:39:31.894Z,13.8
2023-02-18T10:45:08.453Z,14
2023-02-18T10:50:44.989Z,14.1
2023-02-18T10:56:22.678Z,14.1
2023-02-18T11:02:00.481Z,14
2023-02-18T11:07:37.885Z,13.9
2023-02-18T11:13:12.711Z,13.9
2023-02-18T11:18:34.446Z,13.9
2023-02-18T11:23:40.698Z,14.1
2023-02-18T11:29:03.098Z,14.1
2023-02-18T11:34:25.710Z,14.1
2023-02-18T11:40:02.796Z,14
2023-02-18T11:45:24.437Z,13.9
2023-02-18T11:51:00.983Z,14
2023-02-18T11:56:22.580Z,14.1
2023-02-18T12:02:00.506Z,14.1
2023-02-18T12:07:07.384Z,14.1
2023-02-18T12:12:44.322Z,14.1
2023-02-18T12:18:24.025Z,14
2023-02-18T12:24:03.690Z,14.1
2023-02-18T12:29:40.653Z,14.3
2023-02-18T12:35:03.650Z,14.4
2023-02-18T12:40:42.928Z,14.3
2023-02-18T12:46:19.930Z,14.2
2023-02-18T12:51:56.663Z,14.1
2023-02-18T12:57:33.959Z,14.1
2023-02-18T13:02:40.212Z,14.3
2023-02-18T13:08:02.573Z,14.3
2023-02-18T13:13:24.075Z,14.3
2023-02-18T13:18:45.773Z,14.2
2023-02-18T13:24:24.861Z,14.1
2023-02-18T13:29:49.454Z,14
2023-02-18T13:35:27.749Z,14.2
2023-02-18T13:41:05.143Z,14.4
2023-02-18T13:46:42.060Z,14.4
2023-02-18T13:52:19.591Z,14.4
2023-02-18T13:57:56.199Z,14.3
2023-02-18T14:03:35.138Z,14.2
2023-02-18T14:09:12.021Z,14.2
2023-02-18T14:14:48.640Z,14.4
2023-02-18T14:20:26.477Z,14.5
2023-02-18T14:26:03.579Z,14.5
2023-02-18T14:31:47.223Z,14.4
2023-02-18T14:37:10.872Z,14.3
2023-02-18T14:42:32.947Z,14.2
2023-02-18T14:48:10.090Z,14.2
2023-02-18T14:53:46.419Z,14.1
2023-02-18T14:59:23.439Z,14
2023-02-18T15:05:01.711Z,13.9
2023-02-18T15:10:39.298Z,13.9
2023-02-18T15:16:03.169Z,13.8
2023-02-18T15:21:44.213Z,13.7
2023-02-18T15:27:22.191Z,13.6
2023-02-18T15:32:45.687Z,13.6
2023-02-18T15:38:23.259Z,13.5
2023-02-18T15:44:01.450Z,13.4
2023-02-18T15:49:40.165Z,13.4
2023-02-18T15:55:10.830Z,13.3
2023-02-18T16:00:49.323Z,13.3
2023-02-18T16:06:28.848Z,13.3
2023-02-18T16:11:35.972Z,13.2
2023-02-18T16:16:43.424Z,13.1
2023-02-18T16:22:18.557Z,13.1
2023-02-18T16:27:40.346Z,13.1
2023-02-18T16:33:18.665Z,13
2023-02-18T16:38:53.840Z,12.9
2023-02-18T16:44:32.370Z,12.9
2023-02-18T16:49:54.727Z,12.9
2023-02-18T16:55:34.320Z,12.8
2023-02-18T17:01:12.075Z,12.8
2023-02-18T17:07:06.375Z,12.8
2023-02-18T17:12:28.346Z,12.8
2023-02-18T17:18:06.727Z,12.7
2023-02-18T17:23:46.437Z,12.8
2023-02-18T17:29:24.227Z,13.2
2023-02-18T17:35:03.276Z,13.7
2023-02-18T17:40:42.976Z,14
2023-02-18T17:46:08.574Z,14.2
2023-02-18T17:51:46.553Z,14.3
2023-02-18T17:57:08.762Z,14.3
2023-02-18T18:02:31.056Z,14.3
2023-02-18T18:07:52.841Z,14.6
2023-02-18T18:13:29.920Z,14.6
2023-02-18T18:19:07.474Z,14.6
2023-02-18T18:24:45.050Z,14.4
2023-02-18T18:30:22.784Z,14.4
2023-02-18T18:35:59.054Z,14.3
2023-02-18T18:41:21.309Z,14.4
2023-02-18T18:46:43.103Z,14.6
2023-02-18T18:52:22.087Z,14.7
2023-02-18T18:58:03.494Z,14.6
2023-02-18T19:03:40.950Z,14.5
2023-02-18T19:09:18.870Z,14.4
2023-02-18T19:14:56.541Z,14.5
2023-02-18T19:20:33.385Z,14.6
2023-02-18T19:26:11.370Z,14.8
2023-02-18T19:31:49.969Z,14.8
2023-02-18T19:37:26.148Z,14.8
2023-02-18T19:43:03.565Z,14.9
2023-02-18T19:48:40.768Z,14.9
2023-02-18T19:54:18.819Z,14.8
2023-02-18T19:59:56.066Z,14.8
2023-02-18T20:05:19.107Z,14.9
2023-02-18T20:10:55.501Z,14.9
2023-02-18T20:16:33.723Z,14.8
2023-02-18T20:22:11.211Z,14.8
2023-02-18T20:28:16.964Z,14.9
2023-02-18T20:33:54.807Z,14.9
2023-02-18T20:39:47.062Z,14.9
2023-02-18T20:45:35.470Z,14.7
2023-02-18T20:50:57.708Z,14.6
2023-02-18T20:56:35.017Z,14.6
2023-02-18T21:02:14.383Z,14.8
2023-02-18T21:07:52.238Z,14.8
2023-02-18T21:13:29.604Z,14.9
2023-02-18T21:19:07.318Z,14.8
2023-02-18T21:24:30.283Z,14.9
2023-02-18T21:30:07.973Z,14.9
2023-02-18T21:36:00.647Z,14.9
2023-02-18T21:41:23.541Z,14.8
2023-02-18T21:46:56.366Z,14.7
2023-02-18T21:52:34.810Z,14.8
2023-02-18T21:58:18.236Z,14.9
2023-02-18T22:04:14.336Z,14.9
2023-02-18T22:09:52.299Z,14.8
2023-02-18T22:15:13.308Z,14.8
2023-02-18T22:20:51.549Z,14.8
2023-02-18T22:26:29.470Z,14.9
2023-02-18T22:32:07.038Z,15
2023-02-18T22:37:47.331Z,15.1
2023-02-18T22:43:25.316Z,14.9
2023-02-18T22:49:02.308Z,15
2023-02-18T22:54:39.924Z,15
2023-02-18T23:00:16.258Z,15
2023-02-18T23:05:53.204Z,14.9
2023-02-18T23:11:15.752Z,15
2023-02-18T23:16:55.125Z,15
2023-02-18T23:22:16.194Z,15
2023-02-18T23:27:52.756Z,14.9
2023-02-18T23:33:31.294Z,15
2023-02-18T23:38:53.309Z,15.1
2023-02-18T23:44:31.073Z,15.1
2023-02-18T23:50:08.253Z,15
2023-02-18T23:55:45.274Z,15
